Time;durP1;ratioP1;P1;durP2;ratioP2;P2;SDS_P1;SDS_P2;PMS_P1;PMS_P2;Temp;Humidity;BMP_temperature;BMP_pressure;BME280_temperature;BME280_humidity;BME280_pressure;Samples;Min_cycle;Max_cycle;Signal;HPM_P1;HPM_P2
2022/07/27 00:01:15;;;;;;;4.75;1.30;;;18.30;57.20;;;;;;4997231;28;20037;-78
2022/07/27 00:03:41;;;;;;;3.22;1.30;;;18.30;57.40;;;;;;5012561;28;20048;-79
2022/07/27 00:06:07;;;;;;;2.47;1.20;;;18.20;57.70;;;;;;5008914;28;20034;-79
2022/07/27 00:08:33;;;;;;;3.58;1.20;;;18.20;58.00;;;;;;4978987;28;20395;-79
2022/07/27 00:10:59;;;;;;;2.50;1.00;;;18.20;58.10;;;;;;4996208;28;20031;-79
2022/07/27 00:13:25;;;;;;;1.70;1.10;;;18.20;58.20;;;;;;5011897;28;20034;-79
2022/07/27 00:15:50;;;;;;;3.05;1.42;;;18.20;58.40;;;;;;5012636;28;20046;-79
2022/07/27 00:18:19;;;;;;;5.10;1.30;;;18.10;58.20;;;;;;4997319;28;20105;-79
2022/07/27 00:20:44;;;;;;;3.85;1.30;;;18.10;58.60;;;;;;4996421;28;20025;-79
2022/07/27 00:23:10;;;;;;;5.93;1.45;;;18.00;58.60;;;;;;4997373;28;20485;-79
2022/07/27 00:25:36;;;;;;;1.95;1.33;;;18.00;58.80;;;;;;4996944;28;20035;-79
2022/07/27 00:28:02;;;;;;;3.15;1.23;;;18.00;59.10;;;;;;4996951;28;20022;-79
2022/07/27 00:30:28;;;;;;;3.97;1.17;;;17.90;58.90;;;;;;4996848;28;20099;-79
2022/07/27 00:32:54;;;;;;;3.28;1.23;;;17.90;59.10;;;;;;4997046;28;20038;-79
2022/07/27 00:35:24;;;;;;;3.17;1.15;;;17.90;58.80;;;;;;4995258;28;20026;-79
2022/07/27 00:37:49;;;;;;;5.53;1.10;;;17.80;59.00;;;;;;4996654;28;20029;-79
2022/07/27 00:40:15;;;;;;;3.25;1.27;;;17.80;59.40;;;;;;4996388;28;20035;-79
2022/07/27 00:42:41;;;;;;;1.55;1.10;;;17.80;58.70;;;;;;4996868;28;20034;-79
2022/07/27 00:45:07;;;;;;;3.00;1.40;;;17.80;58.80;;;;;;4997013;28;20042;-79
2022/07/27 00:47:32;;;;;;;2.30;1.13;;;17.80;59.00;;;;;;4995058;28;20480;-79
2022/07/27 00:49:59;;;;;;;3.47;1.52;;;17.80;58.70;;;;;;4995821;28;20034;-79
2022/07/27 00:52:27;;;;;;;1.77;1.10;;;17.70;59.00;;;;;;4996680;28;20023;-79
2022/07/27 00:54:53;;;;;;;4.15;1.48;;;17.60;59.80;;;;;;4996559;28;20030;-79
2022/07/27 00:57:19;;;;;;;3.33;1.42;;;17.50;59.80;;;;;;4996415;28;20102;-79
2022/07/27 00:59:45;;;;;;;1.75;1.10;;;17.50;60.00;;;;;;4995780;28;20057;-79
2022/07/27 01:02:10;;;;;;;1.80;1.35;;;17.40;59.60;;;;;;4996611;28;20031;-79
2022/07/27 01:04:36;;;;;;;4.78;1.40;;;17.40;60.00;;;;;;4996183;28;20038;-79
2022/07/27 01:07:04;;;;;;;2.33;1.20;;;17.30;60.30;;;;;;4996553;28;20027;-79
2022/07/27 01:12:18;;;;;;;2.53;1.85;;;17.30;61.00;;;;;;4995756;28;20037;-79
2022/07/27 01:14:44;;;;;;;3.88;1.48;;;17.30;61.10;;;;;;4996701;28;20346;-78
2022/07/27 01:17:10;;;;;;;2.72;1.70;;;17.30;60.90;;;;;;5009582;28;20022;-79
2022/07/27 01:19:35;;;;;;;2.53;1.63;;;17.30;61.10;;;;;;4995776;28;20030;-78
2022/07/27 01:22:02;;;;;;;3.42;1.65;;;17.30;60.80;;;;;;4996499;28;20100;-79
2022/07/27 01:24:28;;;;;;;3.60;1.50;;;17.30;60.40;;;;;;4996194;28;20228;-79
2022/07/27 01:26:54;;;;;;;3.08;1.38;;;17.20;60.80;;;;;;4995722;28;20057;-79
2022/07/27 01:29:19;;;;;;;4.60;1.73;;;17.20;60.70;;;;;;4995456;28;20023;-79
2022/07/27 01:31:45;;;;;;;2.05;1.35;;;17.10;60.80;;;;;;4994931;28;20026;-79
2022/07/27 01:34:11;;;;;;;3.08;1.83;;;17.00;61.20;;;;;;4995068;28;20033;-79
2022/07/27 01:36:37;;;;;;;3.35;1.67;;;17.00;61.10;;;;;;4996025;28;20535;-79
2022/07/27 01:39:02;;;;;;;2.92;1.55;;;17.00;61.30;;;;;;4995669;28;20026;-79
2022/07/27 01:41:28;;;;;;;4.50;1.30;;;17.00;61.10;;;;;;4996046;28;20026;-79
2022/07/27 01:43:56;;;;;;;3.03;1.55;;;16.90;61.50;;;;;;4995428;28;20034;-79
2022/07/27 01:46:22;;;;;;;4.40;1.60;;;16.90;61.70;;;;;;4995888;28;20033;-79
2022/07/27 01:48:48;;;;;;;7.03;1.50;;;16.90;61.70;;;;;;4995378;28;20042;-79
2022/07/27 01:51:13;;;;;;;4.07;1.63;;;16.80;61.80;;;;;;4995313;28;20026;-78
2022/07/27 01:53:39;;;;;;;4.20;1.33;;;16.80;61.90;;;;;;4995837;28;20437;-79
2022/07/27 01:56:10;;;;;;;2.22;1.45;;;16.70;62.40;;;;;;4995315;28;20018;-79
2022/07/27 01:58:37;;;;;;;4.10;1.70;;;16.70;62.60;;;;;;4994589;28;20042;-79
2022/07/27 02:01:04;;;;;;;6.20;1.70;;;16.70;62.70;;;;;;5002888;28;20114;-78
2022/07/27 02:03:29;;;;;;;3.90;1.73;;;16.70;63.10;;;;;;4995767;28;20107;-79
2022/07/27 02:05:55;;;;;;;3.10;1.70;;;16.70;62.70;;;;;;4995249;28;20050;-79
2022/07/27 02:08:21;;;;;;;5.90;1.80;;;16.70;62.80;;;;;;4995545;28;20031;-79
2022/07/27 02:13:31;;;;;;;5.53;1.98;;;16.80;62.50;;;;;;4995455;28;20456;-79
2022/07/27 02:15:56;;;;;;;2.38;1.42;;;16.80;62.40;;;;;;4995720;28;20054;-78
2022/07/27 02:18:23;;;;;;;2.13;1.60;;;16.70;62.50;;;;;;4995600;28;20038;-79
2022/07/27 02:20:48;;;;;;;5.47;1.52;;;16.70;62.40;;;;;;5011121;28;20026;-79
2022/07/27 02:23:21;;;;;;;3.30;1.45;;;16.70;62.40;;;;;;4995137;28;20049;-79
2022/07/27 02:25:47;;;;;;;5.07;1.92;;;16.60;62.10;;;;;;4994800;28;20162;-78
2022/07/27 02:28:13;;;;;;;4.82;1.60;;;16.60;62.30;;;;;;4995217;28;20027;-79
2022/07/27 02:30:39;;;;;;;2.30;1.50;;;16.70;62.40;;;;;;5010562;28;20026;-79
2022/07/27 02:33:05;;;;;;;1.80;1.25;;;16.60;62.40;;;;;;4994208;28;20037;-79
2022/07/27 02:35:30;;;;;;;2.90;1.60;;;16.60;61.80;;;;;;4995529;28;20030;-78
2022/07/27 02:37:56;;;;;;;4.50;1.77;;;16.50;62.20;;;;;;4995541;28;20027;-79
2022/07/27 02:40:41;;;;;;;2.40;1.30;;;16.50;62.30;;;;;;4995067;28;20038;-79
2022/07/27 02:43:07;;;;;;;4.80;1.60;;;16.50;62.40;;;;;;4993648;28;20478;-79
2022/07/27 02:45:32;;;;;;;2.78;2.03;;;16.50;62.40;;;;;;4995179;28;20054;-79
2022/07/27 02:47:58;;;;;;;4.63;1.92;;;16.50;62.00;;;;;;4995117;28;20437;-79
2022/07/27 02:50:24;;;;;;;3.72;1.45;;;16.50;62.30;;;;;;4994921;28;20053;-78
2022/07/27 02:52:49;;;;;;;4.13;2.00;;;16.40;62.60;;;;;;4975891;28;20027;-78
2022/07/27 02:55:15;;;;;;;5.47;1.58;;;16.30;62.50;;;;;;4976028;28;20023;-79
2022/07/27 02:57:41;;;;;;;5.07;1.83;;;16.30;62.30;;;;;;4993418;28;20026;-79
2022/07/27 03:00:11;;;;;;;4.47;1.65;;;16.30;62.30;;;;;;4998435;28;20089;-79
2022/07/27 03:02:37;;;;;;;2.67;1.20;;;16.30;62.10;;;;;;4998950;28;20050;-79
2022/07/27 03:05:07;;;;;;;4.60;1.98;;;16.30;62.10;;;;;;4998356;28;20061;-78
2022/07/27 03:07:33;;;;;;;;;;;16.20;62.30;;;;;;4998905;28;20401;-79
2022/07/27 03:09:58;;;;;;;6.15;1.70;;;16.20;62.00;;;;;;4998800;28;20044;-79
2022/07/27 03:12:24;;;;;;;3.85;1.70;;;16.20;62.20;;;;;;4996978;28;20044;-79
2022/07/27 03:14:50;;;;;;;4.78;1.25;;;16.10;62.10;;;;;;4997497;28;20497;-78
2022/07/27 03:17:16;;;;;;;2.58;1.20;;;16.10;62.10;;;;;;4997033;28;20041;-79
2022/07/27 03:19:41;;;;;;;2.28;1.33;;;16.00;62.30;;;;;;4998651;28;20551;-79
2022/07/27 03:22:07;;;;;;;2.58;1.40;;;16.00;62.40;;;;;;4998488;28;20038;-78
2022/07/27 03:24:33;;;;;;;3.90;1.80;;;15.90;62.30;;;;;;5013030;28;20134;-78
2022/07/27 03:26:59;;;;;;;2.55;1.67;;;15.90;62.90;;;;;;4998045;28;20521;-78
2022/07/27 03:29:25;;;;;;;2.42;1.50;;;15.90;62.60;;;;;;4997227;28;20069;-79
2022/07/27 03:31:50;;;;;;;1.83;1.20;;;15.90;62.50;;;;;;4997761;28;20088;-78
2022/07/27 03:34:16;;;;;;;2.55;1.33;;;15.90;62.70;;;;;;4998470;28;20019;-78
2022/07/27 03:36:42;;;;;;;3.88;1.60;;;15.80;62.40;;;;;;4996938;28;20018;-78
2022/07/27 03:39:08;;;;;;;4.63;1.52;;;15.90;62.30;;;;;;4997810;28;20028;-78
2022/07/27 03:41:34;;;;;;;2.35;1.17;;;15.80;62.30;;;;;;4998425;28;20072;-78
2022/07/27 03:43:59;;;;;;;2.38;1.58;;;15.80;61.80;;;;;;4998039;28;20112;-78
2022/07/27 03:46:25;;;;;;;3.05;1.40;;;15.80;62.00;;;;;;5012635;28;20030;-78
2022/07/27 03:48:51;;;;;;;3.05;1.60;;;15.80;62.20;;;;;;5011801;28;20030;-78
2022/07/27 03:51:16;;;;;;;3.42;1.42;;;15.70;62.20;;;;;;4996794;28;20110;-78
2022/07/27 03:53:42;;;;;;;4.10;1.42;;;15.70;62.30;;;;;;4998118;28;20029;-78
2022/07/27 03:56:08;;;;;;;6.95;1.90;;;15.60;62.50;;;;;;4997881;28;20043;-78
2022/07/27 03:58:34;;;;;;;1.88;1.20;;;15.60;62.20;;;;;;4997601;28;20026;-78
2022/07/27 04:00:59;;;;;;;2.22;1.42;;;15.60;62.30;;;;;;5012803;28;20022;-78
2022/07/27 04:03:25;;;;;;;2.67;1.58;;;15.50;62.70;;;;;;4996783;28;20559;-78
2022/07/27 04:05:51;;;;;;;4.30;1.80;;;15.50;62.80;;;;;;4997724;28;20512;-78
2022/07/27 04:08:19;;;;;;;2.97;1.52;;;15.40;62.70;;;;;;4997787;28;20034;-78
2022/07/27 04:10:44;;;;;;;5.38;1.58;;;15.40;63.10;;;;;;4996095;28;20019;-78
2022/07/27 04:13:11;;;;;;;4.28;1.67;;;15.40;63.20;;;;;;4996137;28;20060;-78
2022/07/27 04:15:37;;;;;;;4.78;1.52;;;15.40;62.80;;;;;;4997047;28;20100;-78
2022/07/27 04:18:03;;;;;;;2.33;1.20;;;15.40;63.00;;;;;;4996401;28;20031;-78
2022/07/27 04:20:29;;;;;;;2.55;1.48;;;15.50;62.60;;;;;;4997038;28;20084;-79
2022/07/27 04:22:57;;;;;;;4.47;1.88;;;15.50;62.50;;;;;;4997291;28;20054;-78
2022/07/27 04:25:22;;;;;;;3.45;1.52;;;15.40;62.40;;;;;;4997076;28;20026;-78
2022/07/27 04:27:48;;;;;;;5.53;1.60;;;15.40;62.80;;;;;;4996913;28;20543;-78
2022/07/27 04:30:14;;;;;;;3.72;1.65;;;15.30;63.00;;;;;;4997481;28;20033;-78
2022/07/27 04:32:39;;;;;;;4.05;1.42;;;15.30;63.10;;;;;;4995791;28;20053;-78
2022/07/27 04:35:06;;;;;;;4.13;1.67;;;15.30;63.10;;;;;;4996657;28;20022;-78
2022/07/27 04:37:33;;;;;;;3.60;1.38;;;15.30;63.00;;;;;;5012480;28;20027;-78
2022/07/27 04:40:06;;;;;;;3.20;1.58;;;15.30;62.80;;;;;;4997124;28;20366;-78
2022/07/27 04:42:32;;;;;;;2.80;1.40;;;15.30;62.80;;;;;;4995979;28;20539;-78
2022/07/27 04:44:58;;;;;;;2.60;1.35;;;15.30;63.00;;;;;;4995777;28;20065;-79
2022/07/27 04:47:25;;;;;;;4.05;1.30;;;15.20;63.30;;;;;;4996516;28;20062;-78
2022/07/27 04:49:50;;;;;;;4.15;1.83;;;15.20;63.70;;;;;;4996823;28;20049;-78
2022/07/27 04:52:16;;;;;;;3.38;1.38;;;15.00;64.40;;;;;;4995812;28;20033;-78
2022/07/27 04:54:42;;;;;;;3.60;1.60;;;15.00;64.00;;;;;;4996507;28;20096;-78
2022/07/27 04:57:08;;;;;;;6.70;1.30;;;14.90;64.40;;;;;;5011991;28;20026;-78
2022/07/27 04:59:33;;;;;;;2.60;1.25;;;15.10;63.80;;;;;;4996660;28;20429;-78
2022/07/27 05:01:59;;;;;;;4.00;1.50;;;15.10;63.60;;;;;;4996094;28;20034;-78
2022/07/27 05:04:25;;;;;;;2.65;1.42;;;15.10;63.70;;;;;;4996156;28;20113;-78
2022/07/27 05:06:50;;;;;;;6.00;1.48;;;15.10;63.60;;;;;;4996666;28;20126;-78
2022/07/27 05:09:16;;;;;;;3.25;1.17;;;15.10;64.10;;;;;;4994827;28;20084;-78
2022/07/27 05:11:42;;;;;;;3.97;1.63;;;15.10;63.80;;;;;;4996766;28;20169;-78
2022/07/27 05:14:07;;;;;;;3.53;1.52;;;15.20;63.30;;;;;;4996346;28;20319;-79
2022/07/27 05:16:33;;;;;;;1.80;1.23;;;15.20;63.20;;;;;;4995873;28;20050;-78
2022/07/27 05:18:59;;;;;;;5.03;1.35;;;15.20;63.00;;;;;;4995848;28;20034;-78
2022/07/27 05:21:26;;;;;;;2.75;1.20;;;15.20;63.00;;;;;;4994077;28;20030;-78
2022/07/27 05:23:51;;;;;;;2.50;1.25;;;15.10;63.30;;;;;;4995734;28;20030;-78
2022/07/27 05:26:17;;;;;;;3.15;1.48;;;15.10;64.10;;;;;;4996629;28;20109;-78
2022/07/27 05:28:43;;;;;;;2.55;1.65;;;15.10;64.10;;;;;;5011574;28;20392;-78
2022/07/27 05:31:08;;;;;;;1.60;1.42;;;15.10;64.30;;;;;;5011447;28;20026;-78
2022/07/27 05:33:34;;;;;;;2.47;1.58;;;15.20;64.20;;;;;;4995654;28;20029;-78
2022/07/27 05:36:00;;;;;;;3.60;1.60;;;15.20;63.50;;;;;;4995158;28;20029;-78
2022/07/27 05:38:25;;;;;;;4.28;1.70;;;15.30;63.30;;;;;;4995051;28;20069;-78
2022/07/27 05:40:52;;;;;;;5.05;1.70;;;15.20;63.80;;;;;;4996086;28;20113;-78
2022/07/27 05:43:18;;;;;;;2.38;1.58;;;15.20;64.10;;;;;;4994547;28;20460;-79
2022/07/27 05:45:43;;;;;;;3.55;1.60;;;15.20;64.90;;;;;;4996100;28;20030;-78
2022/07/27 05:48:09;;;;;;;2.10;1.38;;;15.20;64.30;;;;;;4994362;28;20117;-78
2022/07/27 05:50:35;;;;;;;2.53;1.42;;;15.20;64.30;;;;;;4996083;28;20034;-78
2022/07/27 05:53:00;;;;;;;4.30;1.40;;;15.20;64.50;;;;;;4995328;28;20026;-79
2022/07/27 05:55:26;;;;;;;3.60;1.60;;;15.20;64.40;;;;;;4995307;28;20105;-78
2022/07/27 05:57:52;;;;;;;2.78;1.52;;;15.30;64.20;;;;;;4995800;28;20023;-78
2022/07/27 06:00:18;;;;;;;3.60;1.60;;;15.30;64.70;;;;;;4995778;28;20512;-78
2022/07/27 06:02:43;;;;;;;1.88;1.40;;;15.30;64.50;;;;;;4995435;28;20057;-78
2022/07/27 06:05:09;;;;;;;2.33;1.30;;;15.30;65.20;;;;;;4995947;28;20606;-78
2022/07/27 06:10:19;;;;;;;4.85;1.45;;;15.30;65.50;;;;;;4995848;28;20077;-78
2022/07/27 06:12:46;;;;;;;5.53;2.00;;;15.40;64.40;;;;;;4995071;28;20042;-78
2022/07/27 06:15:12;;;;;;;4.20;1.40;;;15.30;65.40;;;;;;4995244;28;20114;-78
2022/07/27 06:17:39;;;;;;;3.08;2.00;;;15.40;65.00;;;;;;4994630;28;20029;-78
2022/07/27 06:20:07;;;;;;;2.88;1.55;;;15.50;65.10;;;;;;4995129;28;20030;-78
2022/07/27 06:22:42;;;;;;;5.18;2.00;;;15.50;64.30;;;;;;4995980;28;20018;-78
2022/07/27 06:25:08;;;;;;;5.88;1.90;;;15.60;64.30;;;;;;4995062;28;20027;-78
2022/07/27 06:27:36;;;;;;;4.72;1.63;;;15.60;64.50;;;;;;4995597;28;20091;-78
2022/07/27 06:30:03;;;;;;;2.47;1.45;;;15.60;65.70;;;;;;4995559;28;20033;-79
2022/07/27 06:32:28;;;;;;;2.75;1.63;;;15.70;65.30;;;;;;4995093;28;20449;-78
2022/07/27 06:34:54;;;;;;;2.80;1.73;;;15.70;65.60;;;;;;4997951;28;20057;-78
2022/07/27 06:37:19;;;;;;;4.88;2.60;;;15.80;65.30;;;;;;4999463;28;20041;-78
2022/07/27 06:39:45;;;;;;;2.47;1.60;;;15.80;65.30;;;;;;4999311;28;20030;-78
2022/07/27 06:42:13;;;;;;;3.20;1.60;;;15.80;65.20;;;;;;4998616;28;20080;-78
2022/07/27 06:44:39;;;;;;;4.60;1.60;;;15.90;65.70;;;;;;5014409;28;20034;-78
2022/07/27 06:47:06;;;;;;;7.93;2.08;;;16.00;64.90;;;;;;4998667;28;20026;-78
2022/07/27 06:49:32;;;;;;;6.32;1.58;;;16.20;65.60;;;;;;4999092;28;20030;-78
2022/07/27 06:51:57;;;;;;;3.65;1.45;;;16.20;65.90;;;;;;4998123;28;20038;-78
2022/07/27 06:54:23;;;;;;;5.65;1.60;;;16.20;65.50;;;;;;4999151;28;20396;-79
2022/07/27 06:56:49;;;;;;;3.55;1.48;;;16.20;65.70;;;;;;4999027;28;20029;-78
2022/07/27 06:59:14;;;;;;;2.35;1.17;;;16.30;65.20;;;;;;4998995;28;20061;-78
2022/07/27 07:01:40;;;;;;;2.97;1.35;;;16.30;65.70;;;;;;4998455;28;20057;-78
2022/07/27 07:04:06;;;;;;;5.18;2.08;;;16.40;65.30;;;;;;4998989;28;20035;-78
2022/07/27 07:06:32;;;;;;;1.50;1.30;;;16.50;66.00;;;;;;5013602;28;20030;-78
2022/07/27 07:08:57;;;;;;;2.10;1.52;;;16.50;65.60;;;;;;4998218;28;20045;-78
2022/07/27 07:11:23;;;;;;;3.38;1.65;;;16.60;65.70;;;;;;4993669;28;20114;-78
2022/07/27 07:13:49;;;;;;;7.20;1.63;;;16.70;65.70;;;;;;4979120;28;20042;-78
2022/07/27 07:16:14;;;;;;;5.00;1.70;;;16.80;65.80;;;;;;4993142;28;20496;-78
2022/07/27 07:18:40;;;;;;;4.53;1.67;;;17.00;66.10;;;;;;4998840;28;20477;-78
2022/07/27 07:21:06;;;;;;;8.15;1.70;;;17.20;65.70;;;;;;4997930;28;20081;-78
2022/07/27 07:23:31;;;;;;;4.65;1.67;;;17.30;65.00;;;;;;5013827;28;20507;-79
2022/07/27 07:25:57;;;;;;;2.60;1.27;;;17.70;65.40;;;;;;4998679;28;20075;-79
2022/07/27 07:28:23;;;;;;;2.58;1.25;;;18.60;63.30;;;;;;4997565;28;20045;-79
2022/07/27 07:30:48;;;;;;;4.65;1.13;;;20.60;58.70;;;;;;4997129;28;20533;-79
2022/07/27 07:33:14;;;;;;;2.97;1.00;;;23.80;50.70;;;;;;4996621;28;20030;-79
2022/07/27 07:35:41;;;;;;;2.75;0.77;;;26.50;44.30;;;;;;4998796;28;20037;-79
2022/07/27 07:38:06;;;;;;;7.20;0.73;;;28.80;39.50;;;;;;5013560;28;20034;-77
2022/07/27 07:40:32;;;;;;;4.50;0.88;;;30.40;35.20;;;;;;5009707;28;20043;-78
2022/07/27 07:43:00;;;;;;;2.33;0.63;;;31.50;34.60;;;;;;4981512;28;20497;-77
2022/07/27 07:45:28;;;;;;;3.83;1.00;;;32.70;31.60;;;;;;4997883;28;20033;-77
2022/07/27 07:47:55;;;;;;;6.93;1.08;;;33.70;30.40;;;;;;5012573;28;20117;-78
2022/07/27 07:50:22;;;;;;;4.55;1.15;;;34.60;29.10;;;;;;4996445;28;20069;-77
2022/07/27 07:52:50;;;;;;;1.85;0.80;;;35.30;27.70;;;;;;5012920;28;20030;-78
2022/07/27 07:55:22;;;;;;;4.60;0.83;;;35.90;27.50;;;;;;4997949;28;20077;-77
2022/07/27 07:57:48;;;;;;;4.00;0.85;;;36.40;26.40;;;;;;5007536;28;20285;-77
2022/07/27 08:00:14;;;;;;;1.92;0.75;;;36.80;25.70;;;;;;4997755;28;20027;-78
2022/07/27 08:02:47;;;;;;;1.95;0.90;;;37.20;24.90;;;;;;4997568;28;20084;-78
2022/07/27 08:05:13;;;;;;;2.40;0.60;;;37.60;24.20;;;;;;4997486;28;20035;-78
2022/07/27 08:07:40;;;;;;;3.03;0.93;;;37.90;23.90;;;;;;5011346;28;20038;-78
2022/07/27 08:10:07;;;;;;;1.70;0.82;;;38.30;24.00;;;;;;4997616;28;20069;-78
2022/07/27 08:12:34;;;;;;;3.95;0.60;;;38.40;24.00;;;;;;4997638;28;20026;-78
2022/07/27 08:15:00;;;;;;;2.83;0.60;;;38.60;23.20;;;;;;4996926;28;20045;-78
2022/07/27 08:17:26;;;;;;;2.90;0.90;;;38.40;23.30;;;;;;4997035;28;20102;-78
2022/07/27 08:19:51;;;;;;;3.60;0.73;;;38.70;23.40;;;;;;4996471;28;20134;-78
2022/07/27 08:22:17;;;;;;;3.92;1.38;;;38.90;22.60;;;;;;4997660;28;20070;-78
2022/07/27 08:24:43;;;;;;;2.28;0.60;;;38.70;22.40;;;;;;4996730;28;20066;-78
2022/07/27 08:27:09;;;;;;;2.58;0.75;;;39.00;22.50;;;;;;4996972;28;20030;-78
2022/07/27 08:29:34;;;;;;;3.88;0.90;;;39.10;21.80;;;;;;4995438;28;20094;-78
2022/07/27 08:32:00;;;;;;;1.88;0.60;;;38.50;21.50;;;;;;4997364;28;20096;-78
2022/07/27 08:34:25;;;;;;;1.60;0.60;;;38.90;21.70;;;;;;4996718;28;20029;-78
2022/07/27 08:36:51;;;;;;;3.42;0.90;;;39.50;21.60;;;;;;4997089;28;20041;-78
2022/07/27 08:39:17;;;;;;;3.47;1.00;;;39.50;21.10;;;;;;4995361;28;20022;-78
2022/07/27 08:41:43;;;;;;;3.00;0.73;;;39.20;20.80;;;;;;4997130;28;20038;-78
2022/07/27 08:44:13;;;;;;;2.88;0.75;;;38.50;21.30;;;;;;4996821;28;20062;-78
2022/07/27 08:46:43;;;;;;;2.67;0.68;;;39.10;20.90;;;;;;4996456;28;20117;-78
2022/07/27 08:49:08;;;;;;;2.35;0.88;;;39.10;21.50;;;;;;4997159;28;20086;-79
2022/07/27 08:51:34;;;;;;;2.80;0.73;;;39.60;20.70;;;;;;4996371;28;20038;-78
2022/07/27 08:54:00;;;;;;;3.10;0.82;;;39.80;21.10;;;;;;4997045;28;20568;-78
2022/07/27 08:56:26;;;;;;;2.03;0.52;;;40.50;18.50;;;;;;4995618;28;20023;-78
2022/07/27 08:58:52;;;;;;;2.42;0.77;;;39.30;20.30;;;;;;4995619;28;20092;-78
2022/07/27 09:01:18;;;;;;;3.35;0.68;;;37.00;22.20;;;;;;4996659;28;20033;-78
2022/07/27 09:03:44;;;;;;;2.42;0.60;;;35.80;23.70;;;;;;5011345;28;20026;-80
2022/07/27 09:06:10;;;;;;;4.35;1.00;;;34.00;24.60;;;;;;4996239;28;20026;-80
2022/07/27 09:08:37;;;;;;;2.05;0.60;;;32.70;26.20;;;;;;4996636;28;20030;-80
2022/07/27 09:11:14;;;;;;;3.15;0.73;;;31.70;27.70;;;;;;4998801;28;20038;-80
2022/07/27 09:13:41;;;;;;;2.95;0.75;;;30.70;29.40;;;;;;4996494;28;20030;-80
2022/07/27 09:16:09;;;;;;;4.60;0.80;;;30.00;30.30;;;;;;4996380;28;20133;-80
2022/07/27 09:18:36;;;;;;;2.20;0.60;;;30.40;30.20;;;;;;4996115;28;20092;-80
2022/07/27 09:21:11;;;;;;;4.18;0.80;;;30.80;30.20;;;;;;4994832;28;20037;-80
2022/07/27 09:23:45;;;;;;;1.38;0.63;;;31.00;30.20;;;;;;4994904;28;20045;-80
2022/07/27 09:26:20;;;;;;;1.73;0.77;;;30.50;30.90;;;;;;4996352;28;20042;-80
2022/07/27 09:28:46;;;;;;;2.88;0.90;;;30.10;31.60;;;;;;4996316;28;20409;-80
2022/07/27 09:31:14;;;;;;;1.30;0.65;;;29.80;32.00;;;;;;4995825;28;20058;-80
2022/07/27 09:33:54;;;;;;;3.47;0.77;;;30.10;31.50;;;;;;4994836;28;20483;-80
2022/07/27 09:36:22;;;;;;;3.10;0.80;;;31.30;30.20;;;;;;4996366;28;20030;-80
2022/07/27 09:39:04;;;;;;;1.98;0.65;;;33.10;28.70;;;;;;4995091;28;20041;-81
2022/07/27 09:41:45;;;;;;;2.28;0.73;;;34.40;25.80;;;;;;4996245;28;20014;-78
2022/07/27 09:44:11;;;;;;;2.10;0.47;;;35.70;24.80;;;;;;4995498;28;20366;-78
2022/07/27 09:46:39;;;;;;;2.75;0.70;;;36.60;24.70;;;;;;5011563;28;20026;-80
2022/07/27 09:49:05;;;;;;;1.58;0.70;;;36.50;23.90;;;;;;4995977;28;20022;-80
2022/07/27 09:51:32;;;;;;;1.90;0.60;;;36.60;22.90;;;;;;4995819;28;20030;-80
2022/07/27 09:54:04;;;;;;;3.28;0.80;;;37.10;23.50;;;;;;4994866;28;20034;-78
2022/07/27 09:56:32;;;;;;;3.10;0.63;;;37.30;21.90;;;;;;4995016;28;20125;-78
2022/07/27 09:58:59;;;;;;;2.67;0.60;;;37.40;22.40;;;;;;4995883;28;20030;-78
2022/07/27 10:01:33;;;;;;;1.98;0.60;;;37.30;22.70;;;;;;4994227;28;20030;-78
2022/07/27 10:04:01;;;;;;;3.22;0.65;;;37.40;21.70;;;;;;4994825;28;20034;-78
2022/07/27 10:06:28;;;;;;;1.50;0.55;;;37.20;20.60;;;;;;4995825;28;20033;-78
2022/07/27 10:08:55;;;;;;;4.47;0.80;;;37.00;22.70;;;;;;4998541;28;20077;-78
2022/07/27 10:11:23;;;;;;;1.60;0.60;;;37.10;22.20;;;;;;4999741;28;20023;-78
2022/07/27 10:13:50;;;;;;;2.90;1.00;;;36.60;22.40;;;;;;4999378;28;20018;-78
2022/07/27 10:16:24;;;;;;;2.58;0.80;;;37.10;21.90;;;;;;4999118;28;20038;-77
2022/07/27 10:19:11;;;;;;;1.88;0.80;;;36.90;20.50;;;;;;4999608;28;20027;-78
2022/07/27 10:21:40;;;;;;;2.90;0.77;;;37.10;20.90;;;;;;5011233;28;20041;-78
2022/07/27 10:24:12;;;;;;;3.65;0.70;;;36.80;21.90;;;;;;4980232;28;20031;-78
2022/07/27 10:26:42;;;;;;;2.03;0.47;;;36.20;22.10;;;;;;4995738;28;20022;-80
2022/07/27 10:29:15;;;;;;;4.03;0.98;;;35.30;23.30;;;;;;4999868;28;20045;-80
2022/07/27 10:31:52;;;;;;;3.20;0.70;;;34.00;24.10;;;;;;5013321;28;20534;-80
2022/07/27 10:34:39;;;;;;;1.33;0.40;;;33.50;25.00;;;;;;4999274;28;20137;-80
2022/07/27 10:37:13;;;;;;;1.52;0.50;;;33.80;25.30;;;;;;4998908;28;20026;-77
2022/07/27 10:39:51;;;;;;;1.13;0.40;;;34.20;25.20;;;;;;4999448;28;20072;-78
2022/07/27 10:42:26;;;;;;;3.22;0.68;;;33.40;25.90;;;;;;4999375;28;20037;-79
2022/07/27 10:44:58;;;;;;;3.22;0.55;;;32.70;26.50;;;;;;4999218;28;20038;-80
2022/07/27 10:47:33;;;;;;;1.85;0.52;;;32.60;27.20;;;;;;4998768;28;20061;-79
2022/07/27 10:50:10;;;;;;;3.45;0.70;;;32.30;27.10;;;;;;4999261;28;20040;-79
2022/07/27 10:52:41;;;;;;;1.70;0.60;;;31.70;27.50;;;;;;4998572;28;20027;-80
2022/07/27 10:55:28;;;;;;;3.65;0.93;;;31.30;28.60;;;;;;4998764;28;20033;-80
2022/07/27 10:57:54;;;;;;;3.28;0.50;;;31.10;29.00;;;;;;4999045;28;20185;-80
2022/07/27 11:00:20;;;;;;;1.63;0.70;;;30.70;28.20;;;;;;4997421;28;20085;-80
2022/07/27 11:02:45;;;;;;;2.35;0.80;;;30.30;28.70;;;;;;4997616;28;20034;-79
2022/07/27 11:05:11;;;;;;;2.78;0.57;;;30.20;29.70;;;;;;4998895;28;20027;-79
2022/07/27 11:07:43;;;;;;;1.58;0.55;;;30.00;29.70;;;;;;4998442;28;20632;-80
2022/07/27 11:10:09;;;;;;;3.13;0.73;;;29.90;29.30;;;;;;4998832;28;20474;-80
2022/07/27 11:12:36;;;;;;;1.27;0.47;;;29.70;30.00;;;;;;4997576;28;20049;-79
2022/07/27 11:15:03;;;;;;;3.38;0.70;;;29.70;28.70;;;;;;4998845;28;20046;-79
2022/07/27 11:17:30;;;;;;;1.58;0.45;;;29.70;29.10;;;;;;4998550;28;20054;-79
2022/07/27 11:19:57;;;;;;;2.20;0.68;;;29.70;29.60;;;;;;5012794;28;20030;-79
2022/07/27 11:22:37;;;;;;;3.00;0.90;;;29.60;29.70;;;;;;4998701;28;20136;-80
2022/07/27 11:25:04;;;;;;;3.30;0.68;;;29.50;29.30;;;;;;4998738;28;20022;-80
2022/07/27 11:27:30;;;;;;;2.60;0.88;;;29.30;30.10;;;;;;4998427;28;20023;-80
2022/07/27 11:29:56;;;;;;;4.43;0.60;;;29.30;29.30;;;;;;4997592;28;20041;-80
2022/07/27 11:32:22;;;;;;;2.95;0.60;;;29.30;30.00;;;;;;4998189;28;20034;-79
2022/07/27 11:34:49;;;;;;;5.53;0.75;;;29.20;29.70;;;;;;4998416;28;20022;-79
2022/07/27 11:37:22;;;;;;;2.83;0.60;;;29.30;30.50;;;;;;4998312;28;20504;-79
2022/07/27 11:39:57;;;;;;;3.15;0.90;;;29.30;30.30;;;;;;4997894;28;20618;-79
2022/07/27 11:42:23;;;;;;;1.88;0.77;;;29.40;30.20;;;;;;5013466;28;20034;-79
2022/07/27 11:44:49;;;;;;;1.80;0.57;;;29.30;30.20;;;;;;5013584;28;20034;-79
2022/07/27 11:47:16;;;;;;;1.98;0.40;;;29.30;30.00;;;;;;4997634;28;20084;-79
2022/07/27 11:49:42;;;;;;;1.67;0.52;;;29.50;29.90;;;;;;4996310;28;20370;-79
2022/07/27 11:52:08;;;;;;;1.42;0.57;;;29.50;29.90;;;;;;4996874;28;20145;-79
2022/07/27 11:54:40;;;;;;;2.03;0.50;;;29.10;30.50;;;;;;4997494;28;20034;-79
2022/07/27 11:57:07;;;;;;;1.38;0.52;;;29.00;30.30;;;;;;4997945;28;20014;-79
2022/07/27 11:59:34;;;;;;;2.45;0.68;;;28.70;31.00;;;;;;4997386;28;20023;-79
2022/07/27 12:02:14;;;;;;;2.63;0.80;;;28.50;30.80;;;;;;4997865;28;20028;-79
2022/07/27 12:04:43;;;;;;;1.17;0.63;;;28.80;30.00;;;;;;4997952;28;20023;-79
2022/07/27 12:07:15;;;;;;;1.00;0.50;;;28.60;29.90;;;;;;4997551;28;20018;-79
2022/07/27 12:09:47;;;;;;;2.78;0.70;;;28.40;30.40;;;;;;4995715;28;20030;-80
2022/07/27 12:12:35;;;;;;;1.50;0.65;;;28.30;30.70;;;;;;4997531;28;20517;-79
2022/07/27 12:15:12;;;;;;;1.20;0.63;;;28.30;30.90;;;;;;5008655;28;20724;-79
2022/07/27 12:17:41;;;;;;;1.70;0.80;;;28.30;30.70;;;;;;5012428;28;20062;-79
2022/07/27 12:20:12;;;;;;;5.57;1.13;;;28.40;30.60;;;;;;4997013;28;20468;-80
2022/07/27 12:22:46;;;;;;;3.47;0.77;;;28.50;29.40;;;;;;4997922;28;20074;-79
2022/07/27 12:25:17;;;;;;;1.70;0.80;;;28.60;30.60;;;;;;5012213;28;20036;-79
2022/07/27 12:28:10;;;;;;;3.08;0.40;;;28.80;30.60;;;;;;4996785;28;20114;-79
2022/07/27 12:30:47;;;;;;;1.65;0.60;;;28.50;29.80;;;;;;4996845;28;20050;-79
2022/07/27 12:33:26;;;;;;;2.03;0.50;;;28.30;29.90;;;;;;4996398;28;20034;-79
2022/07/27 12:35:52;;;;;;;;;;;28.50;30.00;;;;;;5012782;28;20038;-79
2022/07/27 12:38:18;;;;;;;2.35;0.60;;;28.60;30.40;;;;;;4997327;28;19937;-79
2022/07/27 12:40:57;;;;;;;2.20;0.60;;;28.70;29.80;;;;;;4996923;28;20023;-79
2022/07/27 12:43:24;;;;;;;1.90;0.70;;;28.70;30.50;;;;;;4996023;28;20560;-79
2022/07/27 12:45:53;;;;;;;1.67;0.50;;;28.70;29.60;;;;;;4996522;28;20530;-79
2022/07/27 12:48:23;;;;;;;1.60;0.68;;;28.60;29.90;;;;;;4996562;28;20038;-79
2022/07/27 12:50:59;;;;;;;1.85;0.70;;;28.50;30.20;;;;;;4996996;28;20443;-79
2022/07/27 12:53:25;;;;;;;2.30;0.63;;;28.10;30.00;;;;;;4996772;28;20489;-79
2022/07/27 12:55:54;;;;;;;1.17;0.60;;;28.20;30.00;;;;;;4995287;28;20050;-79
2022/07/27 12:58:20;;;;;;;1.40;0.63;;;27.50;29.70;;;;;;4996816;28;20026;-79